sensor_id;sensor_type;location;lat;lon;timestamp;P1;durP1;ratioP1;P2;durP2;ratioP2
32501;SDS011;18952;52.516;13.460;2023-04-06T00:00:59;14.13;;;8.93;;
32501;SDS011;18952;52.516;13.460;2023-04-06T00:03:26;13.65;;;8.13;;
32501;SDS011;18952;52.516;13.460;2023-04-06T00:05:53;12.73;;;8.27;;
32501;SDS011;18952;52.516;13.460;2023-04-06T00:08:20;15.88;;;8.98;;
32501;SDS011;18952;52.516;13.460;2023-04-06T00:10:46;11.90;;;8.70;;
32501;SDS011;18952;52.516;13.460;2023-04-06T00:13:13;11.55;;;8.57;;
32501;SDS011;18952;52.516;13.460;2023-04-06T00:15:44;12.68;;;8.77;;
32501;SDS011;18952;52.516;13.460;2023-04-06T00:18:12;11.73;;;8.65;;
32501;SDS011;18952;52.516;13.460;2023-04-06T00:20:40;14.52;;;9.02;;
32501;SDS011;18952;52.516;13.460;2023-04-06T00:23:07;16.63;;;9.02;;
32501;SDS011;18952;52.516;13.460;2023-04-06T00:25:34;16.65;;;8.38;;
32501;SDS011;18952;52.516;13.460;2023-04-06T00:28:01;14.50;;;8.50;;
32501;SDS011;18952;52.516;13.460;2023-04-06T00:30:27;13.15;;;8.43;;
32501;SDS011;18952;52.516;13.460;2023-04-06T00:32:54;13.00;;;8.38;;
32501;SDS011;18952;52.516;13.460;2023-04-06T00:35:21;14.35;;;8.18;;
32501;SDS011;18952;52.516;13.460;2023-04-06T00:37:48;14.07;;;8.73;;
32501;SDS011;18952;52.516;13.460;2023-04-06T00:40:15;14.25;;;8.35;;
32501;SDS011;18952;52.516;13.460;2023-04-06T00:42:42;14.48;;;8.43;;
32501;SDS011;18952;52.516;13.460;2023-04-06T00:45:11;11.00;;;7.80;;
32501;SDS011;18952;52.516;13.460;2023-04-06T00:47:38;13.80;;;8.50;;
32501;SDS011;18952;52.516;13.460;2023-04-06T00:50:06;13.80;;;9.02;;
32501;SDS011;18952;52.516;13.460;2023-04-06T00:52:33;12.02;;;8.50;;
32501;SDS011;18952;52.516;13.460;2023-04-06T00:55:02;11.80;;;8.32;;
32501;SDS011;18952;52.516;13.460;2023-04-06T00:57:30;11.80;;;8.38;;
32501;SDS011;18952;52.516;13.460;2023-04-06T00:59:58;14.25;;;8.00;;
32501;SDS011;18952;52.516;13.460;2023-04-06T01:02:26;14.15;;;8.38;;
32501;SDS011;18952;52.516;13.460;2023-04-06T01:04:54;13.25;;;7.88;;
32501;SDS011;18952;52.516;13.460;2023-04-06T01:07:21;14.80;;;8.40;;
32501;SDS011;18952;52.516;13.460;2023-04-06T01:09:49;12.88;;;8.48;;
32501;SDS011;18952;52.516;13.460;2023-04-06T01:12:18;13.68;;;8.20;;
32501;SDS011;18952;52.516;13.460;2023-04-06T01:14:44;14.45;;;8.70;;
32501;SDS011;18952;52.516;13.460;2023-04-06T01:17:12;12.07;;;8.25;;
32501;SDS011;18952;52.516;13.460;2023-04-06T01:19:41;12.05;;;8.10;;
32501;SDS011;18952;52.516;13.460;2023-04-06T01:22:08;18.30;;;8.73;;
32501;SDS011;18952;52.516;13.460;2023-04-06T01:24:35;16.10;;;8.23;;
32501;SDS011;18952;52.516;13.460;2023-04-06T01:27:02;10.98;;;8.25;;
32501;SDS011;18952;52.516;13.460;2023-04-06T01:29:29;16.63;;;8.27;;
32501;SDS011;18952;52.516;13.460;2023-04-06T01:31:55;15.55;;;8.75;;
32501;SDS011;18952;52.516;13.460;2023-04-06T01:34:22;13.63;;;8.98;;
32501;SDS011;18952;52.516;13.460;2023-04-06T01:36:49;13.77;;;8.85;;
32501;SDS011;18952;52.516;13.460;2023-04-06T01:39:16;14.25;;;9.00;;
32501;SDS011;18952;52.516;13.460;2023-04-06T01:41:42;16.38;;;9.32;;
32501;SDS011;18952;52.516;13.460;2023-04-06T01:44:11;13.32;;;8.55;;
32501;SDS011;18952;52.516;13.460;2023-04-06T01:46:37;13.85;;;8.38;;
32501;SDS011;18952;52.516;13.460;2023-04-06T01:49:04;15.93;;;8.45;;
32501;SDS011;18952;52.516;13.460;2023-04-06T01:51:32;13.60;;;7.97;;
32501;SDS011;18952;52.516;13.460;2023-04-06T01:53:58;14.13;;;8.77;;
32501;SDS011;18952;52.516;13.460;2023-04-06T01:56:25;17.25;;;8.93;;
32501;SDS011;18952;52.516;13.460;2023-04-06T01:58:52;15.85;;;8.52;;
32501;SDS011;18952;52.516;13.460;2023-04-06T02:01:20;18.48;;;8.40;;
32501;SDS011;18952;52.516;13.460;2023-04-06T02:03:47;12.70;;;8.38;;
32501;SDS011;18952;52.516;13.460;2023-04-06T02:06:14;19.20;;;8.70;;
32501;SDS011;18952;52.516;13.460;2023-04-06T02:08:40;13.98;;;8.63;;
32501;SDS011;18952;52.516;13.460;2023-04-06T02:11:07;19.00;;;9.45;;
32501;SDS011;18952;52.516;13.460;2023-04-06T02:13:35;12.32;;;9.38;;
32501;SDS011;18952;52.516;13.460;2023-04-06T02:16:05;13.65;;;8.85;;
32501;SDS011;18952;52.516;13.460;2023-04-06T02:18:33;13.00;;;9.23;;
32501;SDS011;18952;52.516;13.460;2023-04-06T02:21:01;11.68;;;8.73;;
32501;SDS011;18952;52.516;13.460;2023-04-06T02:23:30;17.63;;;9.57;;
32501;SDS011;18952;52.516;13.460;2023-04-06T02:25:57;13.90;;;9.40;;
32501;SDS011;18952;52.516;13.460;2023-04-06T02:28:25;12.27;;;9.23;;
32501;SDS011;18952;52.516;13.460;2023-04-06T02:30:52;14.18;;;9.80;;
32501;SDS011;18952;52.516;13.460;2023-04-06T02:33:23;15.07;;;9.38;;
32501;SDS011;18952;52.516;13.460;2023-04-06T02:35:53;16.58;;;8.95;;
32501;SDS011;18952;52.516;13.460;2023-04-06T02:38:20;16.48;;;9.10;;
32501;SDS011;18952;52.516;13.460;2023-04-06T02:40:48;15.18;;;9.45;;
32501;SDS011;18952;52.516;13.460;2023-04-06T02:43:15;17.17;;;9.07;;
32501;SDS011;18952;52.516;13.460;2023-04-06T02:45:47;18.98;;;10.27;;
32501;SDS011;18952;52.516;13.460;2023-04-06T02:48:15;14.40;;;9.88;;
32501;SDS011;18952;52.516;13.460;2023-04-06T02:50:42;15.18;;;10.50;;
32501;SDS011;18952;52.516;13.460;2023-04-06T02:53:09;17.90;;;10.70;;
32501;SDS011;18952;52.516;13.460;2023-04-06T02:55:35;12.95;;;10.20;;
32501;SDS011;18952;52.516;13.460;2023-04-06T02:58:02;13.82;;;10.30;;
32501;SDS011;18952;52.516;13.460;2023-04-06T03:00:29;15.85;;;11.07;;
32501;SDS011;18952;52.516;13.460;2023-04-06T03:02:56;17.70;;;11.55;;
32501;SDS011;18952;52.516;13.460;2023-04-06T03:05:23;15.80;;;10.57;;
32501;SDS011;18952;52.516;13.460;2023-04-06T03:07:50;16.63;;;10.90;;
32501;SDS011;18952;52.516;13.460;2023-04-06T03:10:17;16.67;;;10.32;;
32501;SDS011;18952;52.516;13.460;2023-04-06T03:12:43;15.35;;;10.13;;
32501;SDS011;18952;52.516;13.460;2023-04-06T03:15:12;15.55;;;10.95;;
32501;SDS011;18952;52.516;13.460;2023-04-06T03:17:42;17.98;;;11.32;;
32501;SDS011;18952;52.516;13.460;2023-04-06T03:20:12;15.60;;;11.43;;
32501;SDS011;18952;52.516;13.460;2023-04-06T03:22:39;20.95;;;11.98;;
32501;SDS011;18952;52.516;13.460;2023-04-06T03:25:06;16.38;;;11.55;;
32501;SDS011;18952;52.516;13.460;2023-04-06T03:27:33;19.25;;;11.20;;
32501;SDS011;18952;52.516;13.460;2023-04-06T03:30:00;16.60;;;11.73;;
32501;SDS011;18952;52.516;13.460;2023-04-06T03:32:27;17.63;;;11.57;;
32501;SDS011;18952;52.516;13.460;2023-04-06T03:34:53;19.63;;;11.60;;
32501;SDS011;18952;52.516;13.460;2023-04-06T03:37:20;18.75;;;11.65;;
32501;SDS011;18952;52.516;13.460;2023-04-06T03:39:47;17.92;;;12.25;;
32501;SDS011;18952;52.516;13.460;2023-04-06T03:42:14;18.30;;;11.48;;
32501;SDS011;18952;52.516;13.460;2023-04-06T03:44:42;17.70;;;11.50;;
32501;SDS011;18952;52.516;13.460;2023-04-06T03:47:09;17.02;;;11.40;;
32501;SDS011;18952;52.516;13.460;2023-04-06T03:49:36;16.48;;;11.30;;
32501;SDS011;18952;52.516;13.460;2023-04-06T03:52:05;17.63;;;11.43;;
32501;SDS011;18952;52.516;13.460;2023-04-06T03:54:32;15.38;;;10.98;;
32501;SDS011;18952;52.516;13.460;2023-04-06T03:57:00;17.40;;;11.32;;
32501;SDS011;18952;52.516;13.460;2023-04-06T03:59:28;21.50;;;11.57;;
32501;SDS011;18952;52.516;13.460;2023-04-06T04:01:58;17.45;;;11.60;;
32501;SDS011;18952;52.516;13.460;2023-04-06T04:04:28;20.20;;;12.02;;
32501;SDS011;18952;52.516;13.460;2023-04-06T04:06:56;16.27;;;12.13;;
32501;SDS011;18952;52.516;13.460;2023-04-06T04:09:24;16.80;;;12.27;;
32501;SDS011;18952;52.516;13.460;2023-04-06T04:11:56;21.00;;;12.73;;
32501;SDS011;18952;52.516;13.460;2023-04-06T04:14:23;18.73;;;11.85;;
32501;SDS011;18952;52.516;13.460;2023-04-06T04:16:52;17.30;;;12.02;;
32501;SDS011;18952;52.516;13.460;2023-04-06T04:19:19;19.83;;;12.25;;
32501;SDS011;18952;52.516;13.460;2023-04-06T04:21:48;22.25;;;12.85;;
32501;SDS011;18952;52.516;13.460;2023-04-06T04:24:15;16.42;;;11.25;;
32501;SDS011;18952;52.516;13.460;2023-04-06T04:26:42;17.08;;;12.00;;
32501;SDS011;18952;52.516;13.460;2023-04-06T04:29:10;19.52;;;12.07;;
32501;SDS011;18952;52.516;13.460;2023-04-06T04:31:41;19.48;;;12.25;;
32501;SDS011;18952;52.516;13.460;2023-04-06T04:34:08;15.35;;;11.20;;
32501;SDS011;18952;52.516;13.460;2023-04-06T04:36:38;17.38;;;12.23;;
32501;SDS011;18952;52.516;13.460;2023-04-06T04:39:08;16.83;;;11.95;;
32501;SDS011;18952;52.516;13.460;2023-04-06T04:41:37;18.08;;;11.25;;
32501;SDS011;18952;52.516;13.460;2023-04-06T04:44:05;16.10;;;12.13;;
32501;SDS011;18952;52.516;13.460;2023-04-06T04:46:32;20.55;;;11.68;;
32501;SDS011;18952;52.516;13.460;2023-04-06T04:48:59;19.63;;;11.45;;
32501;SDS011;18952;52.516;13.460;2023-04-06T04:51:26;17.38;;;11.93;;
32501;SDS011;18952;52.516;13.460;2023-04-06T04:53:54;19.92;;;11.73;;
32501;SDS011;18952;52.516;13.460;2023-04-06T04:56:21;16.55;;;11.65;;
32501;SDS011;18952;52.516;13.460;2023-04-06T04:58:49;16.08;;;11.13;;
32501;SDS011;18952;52.516;13.460;2023-04-06T05:01:17;19.60;;;11.43;;
32501;SDS011;18952;52.516;13.460;2023-04-06T05:03:45;23.38;;;11.35;;
32501;SDS011;18952;52.516;13.460;2023-04-06T05:06:13;17.65;;;11.05;;
32501;SDS011;18952;52.516;13.460;2023-04-06T05:08:43;23.55;;;11.57;;
32501;SDS011;18952;52.516;13.460;2023-04-06T05:11:12;17.17;;;11.40;;
32501;SDS011;18952;52.516;13.460;2023-04-06T05:13:42;17.05;;;10.82;;
32501;SDS011;18952;52.516;13.460;2023-04-06T05:16:14;18.38;;;11.40;;
32501;SDS011;18952;52.516;13.460;2023-04-06T05:18:52;18.55;;;10.68;;
32501;SDS011;18952;52.516;13.460;2023-04-06T05:21:20;20.73;;;11.85;;
32501;SDS011;18952;52.516;13.460;2023-04-06T05:23:53;19.23;;;11.02;;
32501;SDS011;18952;52.516;13.460;2023-04-06T05:26:20;14.50;;;10.73;;
32501;SDS011;18952;52.516;13.460;2023-04-06T05:28:47;18.52;;;10.57;;
32501;SDS011;18952;52.516;13.460;2023-04-06T05:31:14;20.00;;;10.65;;
32501;SDS011;18952;52.516;13.460;2023-04-06T05:33:41;17.40;;;10.13;;
32501;SDS011;18952;52.516;13.460;2023-04-06T05:36:08;17.65;;;11.43;;
32501;SDS011;18952;52.516;13.460;2023-04-06T05:38:34;17.23;;;10.88;;
32501;SDS011;18952;52.516;13.460;2023-04-06T05:41:01;18.40;;;11.15;;
32501;SDS011;18952;52.516;13.460;2023-04-06T05:43:28;18.42;;;10.63;;
32501;SDS011;18952;52.516;13.460;2023-04-06T05:45:55;21.67;;;11.25;;
32501;SDS011;18952;52.516;13.460;2023-04-06T05:48:22;19.48;;;11.50;;
32501;SDS011;18952;52.516;13.460;2023-04-06T05:50:49;20.20;;;11.45;;
32501;SDS011;18952;52.516;13.460;2023-04-06T05:53:16;28.13;;;11.70;;
32501;SDS011;18952;52.516;13.460;2023-04-06T05:55:43;13.27;;;9.77;;
32501;SDS011;18952;52.516;13.460;2023-04-06T05:58:11;20.65;;;10.57;;
32501;SDS011;18952;52.516;13.460;2023-04-06T06:00:38;19.83;;;10.02;;
32501;SDS011;18952;52.516;13.460;2023-04-06T06:03:06;17.42;;;10.20;;
32501;SDS011;18952;52.516;13.460;2023-04-06T06:05:33;21.67;;;10.45;;
32501;SDS011;18952;52.516;13.460;2023-04-06T06:08:01;21.67;;;10.05;;
32501;SDS011;18952;52.516;13.460;2023-04-06T06:10:28;18.13;;;11.82;;
32501;SDS011;18952;52.516;13.460;2023-04-06T06:12:55;17.63;;;10.43;;
32501;SDS011;18952;52.516;13.460;2023-04-06T06:15:22;15.93;;;10.38;;
32501;SDS011;18952;52.516;13.460;2023-04-06T06:17:49;22.55;;;10.82;;
32501;SDS011;18952;52.516;13.460;2023-04-06T06:20:16;22.73;;;11.10;;
32501;SDS011;18952;52.516;13.460;2023-04-06T06:22:43;16.17;;;10.82;;
32501;SDS011;18952;52.516;13.460;2023-04-06T06:25:10;18.25;;;10.50;;
32501;SDS011;18952;52.516;13.460;2023-04-06T06:30:35;21.52;;;10.27;;
32501;SDS011;18952;52.516;13.460;2023-04-06T06:33:01;19.73;;;9.93;;
32501;SDS011;18952;52.516;13.460;2023-04-06T06:35:28;18.30;;;10.63;;
32501;SDS011;18952;52.516;13.460;2023-04-06T06:37:56;20.75;;;10.50;;
32501;SDS011;18952;52.516;13.460;2023-04-06T06:40:23;16.25;;;10.30;;
32501;SDS011;18952;52.516;13.460;2023-04-06T06:42:50;20.00;;;10.77;;
32501;SDS011;18952;52.516;13.460;2023-04-06T06:45:17;19.90;;;11.50;;
32501;SDS011;18952;52.516;13.460;2023-04-06T06:47:44;23.60;;;10.40;;
32501;SDS011;18952;52.516;13.460;2023-04-06T06:50:10;16.98;;;10.93;;
32501;SDS011;18952;52.516;13.460;2023-04-06T06:52:37;18.23;;;11.20;;
32501;SDS011;18952;52.516;13.460;2023-04-06T06:55:05;20.25;;;11.27;;
32501;SDS011;18952;52.516;13.460;2023-04-06T06:57:32;29.45;;;12.38;;
32501;SDS011;18952;52.516;13.460;2023-04-06T06:59:59;18.23;;;10.45;;
32501;SDS011;18952;52.516;13.460;2023-04-06T07:02:28;16.38;;;11.13;;
32501;SDS011;18952;52.516;13.460;2023-04-06T07:04:54;22.27;;;10.18;;
32501;SDS011;18952;52.516;13.460;2023-04-06T07:07:22;15.38;;;9.50;;
32501;SDS011;18952;52.516;13.460;2023-04-06T07:09:48;21.08;;;11.10;;
32501;SDS011;18952;52.516;13.460;2023-04-06T07:12:15;18.00;;;10.15;;
32501;SDS011;18952;52.516;13.460;2023-04-06T07:14:42;16.27;;;9.88;;
32501;SDS011;18952;52.516;13.460;2023-04-06T07:17:09;15.52;;;9.40;;
32501;SDS011;18952;52.516;13.460;2023-04-06T07:19:36;22.92;;;10.43;;
32501;SDS011;18952;52.516;13.460;2023-04-06T07:22:03;20.50;;;9.68;;
32501;SDS011;18952;52.516;13.460;2023-04-06T07:24:30;22.80;;;9.45;;
32501;SDS011;18952;52.516;13.460;2023-04-06T07:26:58;18.23;;;10.40;;
32501;SDS011;18952;52.516;13.460;2023-04-06T07:29:25;16.15;;;9.43;;
32501;SDS011;18952;52.516;13.460;2023-04-06T07:31:53;17.73;;;8.98;;
32501;SDS011;18952;52.516;13.460;2023-04-06T07:34:20;15.10;;;8.80;;
32501;SDS011;18952;52.516;13.460;2023-04-06T07:36:48;12.60;;;8.20;;
32501;SDS011;18952;52.516;13.460;2023-04-06T07:39:14;15.32;;;8.70;;
32501;SDS011;18952;52.516;13.460;2023-04-06T07:41:43;14.88;;;7.90;;
32501;SDS011;18952;52.516;13.460;2023-04-06T07:44:09;12.55;;;7.50;;
32501;SDS011;18952;52.516;13.460;2023-04-06T07:46:36;18.10;;;9.32;;
32501;SDS011;18952;52.516;13.460;2023-04-06T07:49:08;21.05;;;10.75;;
32501;SDS011;18952;52.516;13.460;2023-04-06T07:51:40;19.83;;;11.75;;
32501;SDS011;18952;52.516;13.460;2023-04-06T07:54:07;23.38;;;11.75;;
32501;SDS011;18952;52.516;13.460;2023-04-06T07:56:38;24.13;;;13.75;;
32501;SDS011;18952;52.516;13.460;2023-04-06T07:59:11;23.60;;;15.48;;
32501;SDS011;18952;52.516;13.460;2023-04-06T08:01:38;30.73;;;16.92;;
32501;SDS011;18952;52.516;13.460;2023-04-06T08:04:06;24.42;;;16.30;;
32501;SDS011;18952;52.516;13.460;2023-04-06T08:06:33;30.00;;;18.52;;
32501;SDS011;18952;52.516;13.460;2023-04-06T08:09:02;29.13;;;16.70;;
32501;SDS011;18952;52.516;13.460;2023-04-06T08:11:30;28.30;;;13.95;;
32501;SDS011;18952;52.516;13.460;2023-04-06T08:13:58;33.97;;;21.65;;
32501;SDS011;18952;52.516;13.460;2023-04-06T08:16:25;26.17;;;15.80;;
32501;SDS011;18952;52.516;13.460;2023-04-06T08:18:53;32.65;;;22.35;;
32501;SDS011;18952;52.516;13.460;2023-04-06T08:21:22;14.85;;;6.85;;
32501;SDS011;18952;52.516;13.460;2023-04-06T08:23:49;12.98;;;5.97;;
32501;SDS011;18952;52.516;13.460;2023-04-06T08:26:19;13.63;;;6.15;;
32501;SDS011;18952;52.516;13.460;2023-04-06T08:28:45;14.00;;;4.90;;
32501;SDS011;18952;52.516;13.460;2023-04-06T08:31:13;8.73;;;4.45;;
32501;SDS011;18952;52.516;13.460;2023-04-06T08:33:41;11.65;;;5.03;;
32501;SDS011;18952;52.516;13.460;2023-04-06T08:36:16;11.10;;;5.20;;
32501;SDS011;18952;52.516;13.460;2023-04-06T08:38:43;10.55;;;5.03;;
32501;SDS011;18952;52.516;13.460;2023-04-06T08:41:11;7.70;;;4.50;;
32501;SDS011;18952;52.516;13.460;2023-04-06T08:43:47;10.02;;;4.50;;
32501;SDS011;18952;52.516;13.460;2023-04-06T08:46:20;11.05;;;4.22;;
32501;SDS011;18952;52.516;13.460;2023-04-06T08:48:48;8.77;;;4.30;;
32501;SDS011;18952;52.516;13.460;2023-04-06T08:51:15;9.50;;;5.10;;
32501;SDS011;18952;52.516;13.460;2023-04-06T08:53:43;9.63;;;4.50;;
32501;SDS011;18952;52.516;13.460;2023-04-06T08:56:10;9.93;;;4.57;;
32501;SDS011;18952;52.516;13.460;2023-04-06T08:58:38;10.85;;;4.20;;
32501;SDS011;18952;52.516;13.460;2023-04-06T09:01:06;5.72;;;3.67;;
32501;SDS011;18952;52.516;13.460;2023-04-06T09:03:50;5.22;;;3.35;;
32501;SDS011;18952;52.516;13.460;2023-04-06T09:06:23;7.40;;;3.83;;
32501;SDS011;18952;52.516;13.460;2023-04-06T09:08:50;5.80;;;3.70;;
32501;SDS011;18952;52.516;13.460;2023-04-06T09:11:17;8.40;;;3.70;;
32501;SDS011;18952;52.516;13.460;2023-04-06T09:13:47;10.38;;;3.92;;
32501;SDS011;18952;52.516;13.460;2023-04-06T09:16:24;8.77;;;3.83;;
32501;SDS011;18952;52.516;13.460;2023-04-06T09:18:51;7.10;;;3.47;;
32501;SDS011;18952;52.516;13.460;2023-04-06T09:21:21;8.88;;;4.13;;
32501;SDS011;18952;52.516;13.460;2023-04-06T09:23:58;7.32;;;4.05;;
32501;SDS011;18952;52.516;13.460;2023-04-06T09:26:25;8.38;;;4.07;;
32501;SDS011;18952;52.516;13.460;2023-04-06T09:29:21;8.38;;;4.25;;
32501;SDS011;18952;52.516;13.460;2023-04-06T09:31:52;6.07;;;3.67;;
32501;SDS011;18952;52.516;13.460;2023-04-06T09:34:29;7.25;;;3.83;;
32501;SDS011;18952;52.516;13.460;2023-04-06T09:36:56;8.25;;;3.50;;
32501;SDS011;18952;52.516;13.460;2023-04-06T09:39:24;7.55;;;3.60;;
32501;SDS011;18952;52.516;13.460;2023-04-06T09:41:51;6.22;;;3.70;;
32501;SDS011;18952;52.516;13.460;2023-04-06T09:44:23;10.07;;;4.03;;
32501;SDS011;18952;52.516;13.460;2023-04-06T09:46:53;8.90;;;3.88;;
32501;SDS011;18952;52.516;13.460;2023-04-06T09:49:30;11.23;;;3.80;;
32501;SDS011;18952;52.516;13.460;2023-04-06T09:52:04;8.25;;;4.20;;
32501;SDS011;18952;52.516;13.460;2023-04-06T09:54:34;10.15;;;3.47;;
32501;SDS011;18952;52.516;13.460;2023-04-06T09:57:18;9.27;;;3.83;;
32501;SDS011;18952;52.516;13.460;2023-04-06T10:02:55;9.15;;;3.60;;
32501;SDS011;18952;52.516;13.460;2023-04-06T10:05:54;11.07;;;3.13;;
32501;SDS011;18952;52.516;13.460;2023-04-06T10:08:24;6.22;;;3.50;;
32501;SDS011;18952;52.516;13.460;2023-04-06T10:10:57;8.95;;;3.40;;
32501;SDS011;18952;52.516;13.460;2023-04-06T10:13:24;9.00;;;3.63;;
32501;SDS011;18952;52.516;13.460;2023-04-06T10:15:54;6.75;;;2.90;;
32501;SDS011;18952;52.516;13.460;2023-04-06T10:18:23;6.30;;;3.20;;
32501;SDS011;18952;52.516;13.460;2023-04-06T10:21:10;7.35;;;3.70;;
32501;SDS011;18952;52.516;13.460;2023-04-06T10:23:51;5.72;;;2.90;;
32501;SDS011;18952;52.516;13.460;2023-04-06T10:26:20;4.43;;;2.42;;
32501;SDS011;18952;52.516;13.460;2023-04-06T10:28:49;4.18;;;2.90;;
32501;SDS011;18952;52.516;13.460;2023-04-06T10:31:26;6.38;;;3.42;;
32501;SDS011;18952;52.516;13.460;2023-04-06T10:33:55;7.95;;;3.08;;
32501;SDS011;18952;52.516;13.460;2023-04-06T10:36:31;5.20;;;3.85;;
32501;SDS011;18952;52.516;13.460;2023-04-06T10:39:00;5.47;;;3.38;;
32501;SDS011;18952;52.516;13.460;2023-04-06T10:41:34;5.68;;;2.63;;
32501;SDS011;18952;52.516;13.460;2023-04-06T10:44:03;9.38;;;3.28;;
32501;SDS011;18952;52.516;13.460;2023-04-06T10:46:30;4.75;;;2.45;;
32501;SDS011;18952;52.516;13.460;2023-04-06T10:48:58;9.05;;;2.83;;
32501;SDS011;18952;52.516;13.460;2023-04-06T10:51:37;6.57;;;2.78;;
32501;SDS011;18952;52.516;13.460;2023-04-06T10:54:05;7.05;;;2.95;;
32501;SDS011;18952;52.516;13.460;2023-04-06T10:56:32;5.10;;;2.50;;
32501;SDS011;18952;52.516;13.460;2023-04-06T10:59:08;6.03;;;2.40;;
32501;SDS011;18952;52.516;13.460;2023-04-06T11:01:35;4.32;;;2.80;;
32501;SDS011;18952;52.516;13.460;2023-04-06T11:04:03;5.32;;;3.22;;
32501;SDS011;18952;52.516;13.460;2023-04-06T11:06:30;9.90;;;3.25;;
32501;SDS011;18952;52.516;13.460;2023-04-06T11:08:57;9.02;;;3.22;;
32501;SDS011;18952;52.516;13.460;2023-04-06T11:11:25;5.45;;;3.88;;
32501;SDS011;18952;52.516;13.460;2023-04-06T11:16:31;9.93;;;3.88;;
32501;SDS011;18952;52.516;13.460;2023-04-06T11:19:03;6.25;;;2.88;;
32501;SDS011;18952;52.516;13.460;2023-04-06T11:21:42;4.22;;;3.10;;
32501;SDS011;18952;52.516;13.460;2023-04-06T11:24:19;5.07;;;2.40;;
32501;SDS011;18952;52.516;13.460;2023-04-06T11:29:27;8.48;;;3.08;;
32501;SDS011;18952;52.516;13.460;2023-04-06T11:32:03;7.32;;;2.65;;
32501;SDS011;18952;52.516;13.460;2023-04-06T11:34:33;4.45;;;2.65;;
32501;SDS011;18952;52.516;13.460;2023-04-06T11:37:21;4.60;;;3.10;;
32501;SDS011;18952;52.516;13.460;2023-04-06T11:39:54;5.80;;;2.50;;
32501;SDS011;18952;52.516;13.460;2023-04-06T11:42:22;5.68;;;2.80;;
32501;SDS011;18952;52.516;13.460;2023-04-06T11:44:57;8.38;;;2.80;;
32501;SDS011;18952;52.516;13.460;2023-04-06T11:47:33;4.88;;;2.95;;
32501;SDS011;18952;52.516;13.460;2023-04-06T11:50:13;5.93;;;3.00;;
32501;SDS011;18952;52.516;13.460;2023-04-06T11:52:42;11.77;;;3.50;;
32501;SDS011;18952;52.516;13.460;2023-04-06T11:55:11;7.32;;;3.28;;
32501;SDS011;18952;52.516;13.460;2023-04-06T11:57:39;5.93;;;2.90;;
32501;SDS011;18952;52.516;13.460;2023-04-06T12:00:07;10.05;;;3.58;;
32501;SDS011;18952;52.516;13.460;2023-04-06T12:02:36;6.10;;;3.72;;
32501;SDS011;18952;52.516;13.460;2023-04-06T12:05:05;6.45;;;2.83;;
32501;SDS011;18952;52.516;13.460;2023-04-06T12:07:33;5.47;;;3.20;;
32501;SDS011;18952;52.516;13.460;2023-04-06T12:10:01;4.97;;;2.70;;
32501;SDS011;18952;52.516;13.460;2023-04-06T12:12:29;8.55;;;3.17;;
32501;SDS011;18952;52.516;13.460;2023-04-06T12:14:57;9.27;;;4.47;;
32501;SDS011;18952;52.516;13.460;2023-04-06T12:17:25;8.40;;;3.13;;
32501;SDS011;18952;52.516;13.460;2023-04-06T12:19:54;8.13;;;2.92;;
32501;SDS011;18952;52.516;13.460;2023-04-06T12:22:31;7.60;;;3.10;;
32501;SDS011;18952;52.516;13.460;2023-04-06T12:24:58;5.65;;;3.10;;
32501;SDS011;18952;52.516;13.460;2023-04-06T12:27:25;5.13;;;2.85;;
32501;SDS011;18952;52.516;13.460;2023-04-06T12:29:53;4.90;;;2.83;;
32501;SDS011;18952;52.516;13.460;2023-04-06T12:32:22;4.80;;;2.58;;
32501;SDS011;18952;52.516;13.460;2023-04-06T12:34:54;7.55;;;4.60;;
32501;SDS011;18952;52.516;13.460;2023-04-06T12:37:22;5.45;;;3.42;;
32501;SDS011;18952;52.516;13.460;2023-04-06T12:39:54;5.30;;;2.90;;
32501;SDS011;18952;52.516;13.460;2023-04-06T12:42:21;7.03;;;3.03;;
32501;SDS011;18952;52.516;13.460;2023-04-06T12:44:49;7.35;;;3.33;;
32501;SDS011;18952;52.516;13.460;2023-04-06T12:47:19;6.78;;;2.80;;
32501;SDS011;18952;52.516;13.460;2023-04-06T12:49:46;7.55;;;2.90;;
32501;SDS011;18952;52.516;13.460;2023-04-06T12:52:13;6.60;;;3.00;;
32501;SDS011;18952;52.516;13.460;2023-04-06T12:54:41;5.57;;;3.00;;
32501;SDS011;18952;52.516;13.460;2023-04-06T12:57:08;6.05;;;3.03;;
32501;SDS011;18952;52.516;13.460;2023-04-06T12:59:35;7.05;;;2.65;;
32501;SDS011;18952;52.516;13.460;2023-04-06T13:02:03;7.60;;;2.92;;
32501;SDS011;18952;52.516;13.460;2023-04-06T13:04:30;6.32;;;2.63;;
32501;SDS011;18952;52.516;13.460;2023-04-06T13:06:57;6.72;;;2.80;;
32501;SDS011;18952;52.516;13.460;2023-04-06T13:09:30;3.65;;;2.67;;
32501;SDS011;18952;52.516;13.460;2023-04-06T13:12:01;5.18;;;2.63;;
32501;SDS011;18952;52.516;13.460;2023-04-06T13:14:31;6.18;;;2.65;;
32501;SDS011;18952;52.516;13.460;2023-04-06T13:16:59;6.75;;;2.90;;
32501;SDS011;18952;52.516;13.460;2023-04-06T13:19:26;5.07;;;2.92;;
32501;SDS011;18952;52.516;13.460;2023-04-06T13:21:53;6.18;;;2.72;;
32501;SDS011;18952;52.516;13.460;2023-04-06T13:24:21;4.97;;;3.63;;
32501;SDS011;18952;52.516;13.460;2023-04-06T13:26:49;5.45;;;2.40;;
32501;SDS011;18952;52.516;13.460;2023-04-06T13:29:16;3.33;;;2.50;;
32501;SDS011;18952;52.516;13.460;2023-04-06T13:31:44;5.30;;;2.70;;
32501;SDS011;18952;52.516;13.460;2023-04-06T13:34:11;7.10;;;3.00;;
32501;SDS011;18952;52.516;13.460;2023-04-06T13:36:39;4.25;;;2.67;;
32501;SDS011;18952;52.516;13.460;2023-04-06T13:39:07;4.80;;;2.45;;
32501;SDS011;18952;52.516;13.460;2023-04-06T13:41:36;5.03;;;2.40;;
32501;SDS011;18952;52.516;13.460;2023-04-06T13:44:07;3.72;;;2.53;;
32501;SDS011;18952;52.516;13.460;2023-04-06T13:46:34;5.85;;;3.10;;
32501;SDS011;18952;52.516;13.460;2023-04-06T13:49:02;4.63;;;2.50;;
32501;SDS011;18952;52.516;13.460;2023-04-06T13:51:31;9.10;;;3.10;;
32501;SDS011;18952;52.516;13.460;2023-04-06T13:53:57;3.80;;;2.40;;
32501;SDS011;18952;52.516;13.460;2023-04-06T13:56:24;6.03;;;2.45;;
32501;SDS011;18952;52.516;13.460;2023-04-06T13:58:53;5.40;;;2.80;;
32501;SDS011;18952;52.516;13.460;2023-04-06T14:01:21;10.27;;;3.00;;
32501;SDS011;18952;52.516;13.460;2023-04-06T14:03:48;3.35;;;2.50;;
32501;SDS011;18952;52.516;13.460;2023-04-06T14:06:15;4.97;;;2.80;;
32501;SDS011;18952;52.516;13.460;2023-04-06T14:08:45;10.32;;;2.80;;
32501;SDS011;18952;52.516;13.460;2023-04-06T14:11:13;5.05;;;3.10;;
32501;SDS011;18952;52.516;13.460;2023-04-06T14:13:43;7.05;;;3.15;;
32501;SDS011;18952;52.516;13.460;2023-04-06T14:16:10;5.63;;;3.13;;
32501;SDS011;18952;52.516;13.460;2023-04-06T14:18:37;8.32;;;2.85;;
32501;SDS011;18952;52.516;13.460;2023-04-06T14:21:04;6.00;;;2.85;;
32501;SDS011;18952;52.516;13.460;2023-04-06T14:23:31;6.32;;;2.67;;
32501;SDS011;18952;52.516;13.460;2023-04-06T14:26:04;6.10;;;2.50;;
32501;SDS011;18952;52.516;13.460;2023-04-06T14:28:32;3.65;;;2.78;;
32501;SDS011;18952;52.516;13.460;2023-04-06T14:31:00;5.07;;;2.65;;
32501;SDS011;18952;52.516;13.460;2023-04-06T14:33:31;6.63;;;2.80;;
32501;SDS011;18952;52.516;13.460;2023-04-06T14:35:57;5.90;;;2.47;;
32501;SDS011;18952;52.516;13.460;2023-04-06T14:38:24;5.93;;;2.78;;
32501;SDS011;18952;52.516;13.460;2023-04-06T14:40:51;5.03;;;2.97;;